Terminal Aerodrome Forecast
Issued by NWS

Home | Current Version | Previous Version | Text Only | Print | Product List | Glossary On
Versions: 1 2 3 4 5 6 7 8 9 10 11 12 13 14 15
000
FTUS43 KMQT 240500
TAFSAW
TAF
KSAW 240520Z 2406/2506 12005KT P6SM BKN200 WS008/12035KT
     FM241300 14012KT P6SM OVC100
     FM241900 13011G17KT P6SM -RA OVC025
      TEMPO 2421/2424 3SM -RASN BR OVC015
     FM250000 12010KT 3SM -SN OVC007
      AMD LTD TO CLD VIS AND WIND TIL 241000=

USA.gov is the U.S. government's official web portal to all federal, state and local government web resources and services.